Decoded Metar for KPUW (PULLMAN/MOSCOW in WA, USA) (IATA:PUW) | Meteo·Mobile Aviation Weather
aviador You're here:

KPUW Decoded Metar

PULLMAN/MOSCOW in WA, USA
Report Time2018-08-21 18:53:00
UTC Time2018-08-21 19:55:50
Flight Rules vfr VFR
Wind070° at 05 kt
W.Decomp.*RWY 06: 5.0 kt HW 0.4 kt LCW
W.Rank070° ranks 16
Current wind is above 070° avg. (4.5)
Visibility9656 m
Phenomena:Haze
Clouds:N/A
Expected CloudBase > 6,800 ft AGL from Temp-Dew spread
CeilingNone
Temp23°C (ISA +13)
Dew Point06°C (33% RH)
AAT20.3°C
QNH1021 hPa
Density Alt3,907 ft
Elevation2,536 ft
Report Wrong Elevation
Raw Report
KPUW 211853Z AUTO 07005KT 6SM HZ CLR 23/06 A3015 RMK AO2 SLP199
T02280061=

Extra information for KPUW:More info

Metar Taf Metar & Taf Last 4 Metars F.Rules Stats Wind Profile Meteogram Temp Stats Airport Information Weather charts Add Link Nearby VenuesMetar ALERT Operation Metar Decoded Social comments

AIRNAV info for KPUW